Time;durP1;ratioP1;P1;durP2;ratioP2;P2;SDS_P1;SDS_P2;PMS_P1;PMS_P2;Temp;Humidity;BMP_temperature;BMP_pressure;BME280_temperature;BME280_humidity;BME280_pressure;Samples;Min_cycle;Max_cycle;Signal;HPM_P1;HPM_P2
2023/08/09 00:01:43;;;;;;;2.45;2.28;;;;;14.70;96239.00;;;;8317899;28;20764;-77
2023/08/09 00:05:48;;;;;;;3.63;2.47;;;;;14.80;96239.00;;;;8328507;28;20217;-76
2023/08/09 00:09:53;;;;;;;3.10;2.80;;;;;14.90;96237.00;;;;8316734;28;20233;-72
2023/08/09 00:13:56;;;;;;;3.20;2.35;;;;;14.90;96240.00;;;;8319732;28;20236;-73
2023/08/09 00:17:59;;;;;;;4.10;2.70;;;;;15.00;96247.00;;;;8324417;28;20685;-75
2023/08/09 00:22:04;;;;;;;5.30;2.58;;;;;15.00;96243.00;;;;8327326;28;20204;-74
2023/08/09 00:26:07;;;;;;;2.75;2.50;;;;;14.90;96242.00;;;;8321656;28;20203;-75
2023/08/09 00:30:12;;;;;;;2.78;2.53;;;;;14.90;96246.00;;;;8313959;28;20201;-73
2023/08/09 00:34:15;;;;;;;5.75;2.90;;;;;14.90;96244.00;;;;8324927;28;20380;-79
2023/08/09 00:38:20;;;;;;;3.47;2.72;;;;;14.90;96241.00;;;;8320511;28;20232;-76
2023/08/09 00:42:23;;;;;;;3.78;2.67;;;;;14.90;96242.00;;;;8318900;28;20595;-84
2023/08/09 00:46:28;;;;;;;3.88;2.60;;;;;14.80;96239.00;;;;8317498;28;20207;-80
2023/08/09 00:50:34;;;;;;;7.43;2.78;;;;;14.80;96252.00;;;;8327233;28;20202;-81
2023/08/09 00:54:43;;;;;;;5.95;3.05;;;;;14.70;96251.00;;;;8305131;28;21061;-77
2023/08/09 00:58:52;;;;;;;2.88;2.67;;;;;14.70;96253.00;;;;8332707;28;20216;-78
2023/08/09 01:03:03;;;;;;;7.97;3.15;;;;;14.70;96251.00;;;;8330428;28;20283;-78
2023/08/09 01:07:17;;;;;;;3.97;3.13;;;;;14.70;96243.00;;;;8321591;28;20216;-76
2023/08/09 01:11:30;;;;;;;7.72;2.90;;;;;14.70;96232.00;;;;8320357;28;20201;-76
2023/08/09 01:15:34;;;;;;;9.55;3.25;;;;;14.70;96230.00;;;;8326687;28;20225;-77
2023/08/09 01:19:45;;;;;;;5.45;3.05;;;;;14.70;96242.00;;;;8333546;28;20280;-79
2023/08/09 01:23:51;;;;;;;4.75;3.05;;;;;14.70;96242.00;;;;8322412;28;20213;-77
2023/08/09 01:27:54;;;;;;;6.53;3.22;;;;;14.70;96234.00;;;;8326604;28;20292;-77
2023/08/09 01:32:00;;;;;;;7.20;3.03;;;;;14.70;96231.00;;;;8318519;28;20209;-74
2023/08/09 01:36:10;;;;;;;8.57;3.33;;;;;14.70;96245.00;;;;8324695;28;20315;-80
2023/08/09 01:40:17;;;;;;;10.20;3.40;;;;;14.60;96229.00;;;;8328954;28;20229;-77
2023/08/09 01:44:24;;;;;;;5.47;4.30;;;;;14.60;96222.00;;;;8334626;28;20695;-77
2023/08/09 01:48:29;;;;;;;6.88;3.80;;;;;14.60;96238.00;;;;8322640;28;20874;-77
2023/08/09 01:52:38;;;;;;;10.73;3.58;;;;;14.60;96231.00;;;;8307655;28;20794;-77
2023/08/09 01:56:44;;;;;;;6.60;3.83;;;;;14.50;96228.00;;;;8341393;28;20225;-76
2023/08/09 02:00:48;;;;;;;4.03;3.72;;;;;14.50;96216.00;;;;8330544;28;20688;-77
2023/08/09 02:04:53;;;;;;;10.15;4.05;;;;;14.50;96216.00;;;;8334935;28;20248;-81
2023/08/09 02:08:58;;;;;;;8.98;3.50;;;;;14.50;96202.00;;;;8341741;28;20216;-76
2023/08/09 02:13:03;;;;;;;8.48;4.07;;;;;14.50;96196.00;;;;8337991;28;20200;-77
2023/08/09 02:17:09;;;;;;;8.82;4.05;;;;;14.50;96206.00;;;;8339677;28;20232;-75
2023/08/09 02:21:12;;;;;;;10.15;4.28;;;;;14.50;96197.00;;;;8323071;28;20257;-77
2023/08/09 02:25:19;;;;;;;8.18;4.63;;;;;14.40;96199.00;;;;8331953;28;20319;-78
2023/08/09 02:29:26;;;;;;;9.00;4.13;;;;;14.40;96193.00;;;;8323548;28;20288;-75
2023/08/09 02:33:30;;;;;;;5.38;4.05;;;;;14.50;96193.00;;;;8308049;28;20215;-76
2023/08/09 02:37:36;;;;;;;8.93;4.50;;;;;14.50;96189.00;;;;8320593;28;20321;-76
2023/08/09 02:41:42;;;;;;;8.18;4.47;;;;;14.50;96187.00;;;;8320345;28;20205;-73
2023/08/09 02:45:48;;;;;;;6.68;4.13;;;;;14.50;96178.00;;;;8337972;28;20197;-80
2023/08/09 02:49:52;;;;;;;9.43;4.50;;;;;14.50;96179.00;;;;8304787;28;20197;-76
2023/08/09 02:54:02;;;;;;;9.10;4.68;;;;;14.50;96173.00;;;;8317212;28;20204;-79
2023/08/09 02:58:06;;;;;;;4.95;4.18;;;;;14.50;96175.00;;;;8325185;28;20215;-77
2023/08/09 03:02:13;;;;;;;9.13;4.72;;;;;14.40;96176.00;;;;8352592;23;20699;-79
2023/08/09 03:06:18;;;;;;;7.38;4.53;;;;;14.40;96171.00;;;;8342705;28;20915;-78
2023/08/09 03:10:23;;;;;;;9.57;4.97;;;;;14.40;96181.00;;;;8346733;28;20796;-78
2023/08/09 03:14:26;;;;;;;7.50;5.03;;;;;14.40;96173.00;;;;8340331;28;20267;-77
2023/08/09 03:18:35;;;;;;;11.25;5.13;;;;;14.40;96185.00;;;;8332878;28;20293;-82
2023/08/09 03:22:38;;;;;;;9.10;4.97;;;;;14.30;96183.00;;;;8343377;28;20228;-75
2023/08/09 03:26:44;;;;;;;9.50;4.97;;;;;14.30;96177.00;;;;8347369;28;20213;-74
2023/08/09 03:30:51;;;;;;;10.80;5.22;;;;;14.30;96183.00;;;;8348783;28;20236;-79
2023/08/09 03:34:55;;;;;;;7.15;4.95;;;;;14.30;96176.00;;;;8326687;28;20264;-77
2023/08/09 03:38:59;;;;;;;9.93;5.30;;;;;14.30;96187.00;;;;8348980;28;20211;-72
2023/08/09 03:43:04;;;;;;;10.05;6.60;;;;;14.30;96187.00;;;;8328854;28;20323;-70
2023/08/09 03:47:07;;;;;;;11.68;5.78;;;;;14.30;96181.00;;;;8323971;28;20201;-74
2023/08/09 03:51:12;;;;;;;11.60;5.68;;;;;14.30;96196.00;;;;8319085;28;20205;-73
2023/08/09 03:55:17;;;;;;;10.90;5.53;;;;;14.30;96198.00;;;;8331620;28;20316;-78
2023/08/09 03:59:21;;;;;;;10.98;6.15;;;;;14.30;96195.00;;;;8325330;28;20208;-71
2023/08/09 04:03:26;;;;;;;14.48;5.85;;;;;14.40;96203.00;;;;8320323;28;20235;-74
2023/08/09 04:07:31;;;;;;;18.27;6.20;;;;;14.40;96206.00;;;;8311129;28;20280;-67
2023/08/09 04:11:34;;;;;;;11.23;6.43;;;;;14.40;96209.00;;;;8318604;28;20765;-78
2023/08/09 04:15:39;;;;;;;7.18;5.05;;;;;14.30;96203.00;;;;8318834;28;20225;-79
2023/08/09 04:19:43;;;;;;;9.95;5.63;;;;;14.30;96200.00;;;;8290902;28;20916;-78
2023/08/09 04:23:51;;;;;;;9.02;5.50;;;;;14.40;96201.00;;;;8299607;28;20244;-70
2023/08/09 04:27:56;;;;;;;8.98;5.22;;;;;14.40;96203.00;;;;8292327;28;20201;-70
2023/08/09 04:31:59;;;;;;;14.07;5.47;;;;;14.30;96203.00;;;;8318312;28;20385;-79
2023/08/09 04:36:04;;;;;;;10.70;5.65;;;;;14.30;96204.00;;;;8322430;28;20331;-82
2023/08/09 04:40:10;;;;;;;8.18;4.55;;;;;14.30;96194.00;;;;8315877;28;20239;-82
2023/08/09 04:44:14;;;;;;;12.00;5.43;;;;;14.30;96196.00;;;;8313842;28;20251;-81
2023/08/09 04:48:18;;;;;;;8.40;5.18;;;;;14.30;96189.00;;;;8317809;28;20284;-82
2023/08/09 04:52:21;;;;;;;10.02;4.95;;;;;14.30;96195.00;;;;8317807;28;20216;-75
2023/08/09 04:56:25;;;;;;;10.32;5.07;;;;;14.30;96193.00;;;;8315895;28;20640;-74
2023/08/09 05:00:29;;;;;;;7.80;5.00;;;;;14.30;96199.00;;;;8317232;28;20602;-81
2023/08/09 05:04:32;;;;;;;12.77;4.82;;;;;14.40;96199.00;;;;8313799;28;20254;-85
2023/08/09 05:08:37;;;;;;;9.55;5.35;;;;;14.40;96193.00;;;;8317324;28;20193;-76
2023/08/09 05:12:41;;;;;;;12.23;5.25;;;;;14.40;96198.00;;;;8317153;28;20352;-81
2023/08/09 05:16:54;;;;;;;9.20;4.97;;;;;14.50;96193.00;;;;8313467;28;20225;-80
2023/08/09 05:20:58;;;;;;;10.65;4.88;;;;;14.50;96193.00;;;;8316932;28;20288;-83
2023/08/09 05:25:01;;;;;;;9.48;5.15;;;;;14.50;96184.00;;;;8313567;28;20598;-76
2023/08/09 05:29:07;;;;;;;9.75;4.80;;;;;14.50;96199.00;;;;8300993;28;20205;-75
2023/08/09 05:33:10;;;;;;;8.23;4.40;;;;;14.60;96198.00;;;;8314247;28;20644;-80
2023/08/09 05:37:14;;;;;;;9.65;4.43;;;;;14.70;96200.00;;;;8287775;28;20882;-76
2023/08/09 05:41:17;;;;;;;9.07;4.95;;;;;14.70;96202.00;;;;8316329;28;20240;-75
2023/08/09 05:45:24;;;;;;;9.77;4.68;;;;;14.70;96203.00;;;;8316831;28;20321;-74
2023/08/09 05:49:30;;;;;;;10.15;4.47;;;;;14.80;96198.00;;;;8317883;28;20249;-74
2023/08/09 05:53:35;;;;;;;7.53;4.60;;;;;14.90;96196.00;;;;8317446;28;20212;-73
2023/08/09 05:57:40;;;;;;;6.15;4.63;;;;;15.00;96198.00;;;;8316304;28;20233;-73
2023/08/09 06:01:45;;;;;;;8.60;4.70;;;;;15.00;96207.00;;;;8317689;28;20319;-73
2023/08/09 06:05:48;;;;;;;9.48;5.03;;;;;15.00;96205.00;;;;8310203;28;20808;-74
2023/08/09 06:09:53;;;;;;;7.00;4.80;;;;;15.00;96204.00;;;;8317655;28;20201;-73
2023/08/09 06:13:57;;;;;;;8.10;4.40;;;;;15.00;96197.00;;;;8312516;28;20197;-72
2023/08/09 06:18:02;;;;;;;7.63;4.57;;;;;15.00;96204.00;;;;8311989;28;20709;-73
2023/08/09 06:22:12;;;;;;;10.88;4.30;;;;;14.90;96200.00;;;;8317723;28;20270;-75
2023/08/09 06:26:20;;;;;;;7.22;4.28;;;;;15.00;96201.00;;;;8313152;28;20288;-77
2023/08/09 06:30:30;;;;;;;10.95;5.35;;;;;15.20;96207.00;;;;8316782;28;20297;-76
2023/08/09 06:34:39;;;;;;;7.13;5.10;;;;;15.30;96208.00;;;;8315196;28;20201;-75
2023/08/09 06:38:44;;;;;;;10.05;4.40;;;;;15.40;96204.00;;;;8315960;28;20252;-75
2023/08/09 06:42:51;;;;;;;8.50;4.15;;;;;15.40;96202.00;;;;8304520;28;20954;-82
2023/08/09 06:46:57;;;;;;;8.55;4.57;;;;;15.50;96213.00;;;;8309353;28;20292;-80
2023/08/09 06:51:02;;;;;;;10.25;4.57;;;;;15.50;96206.00;;;;8312493;28;20284;-79
2023/08/09 06:55:08;;;;;;;9.02;4.07;;;;;15.50;96221.00;;;;8310551;28;20209;-78
2023/08/09 06:59:11;;;;;;;8.65;4.32;;;;;15.60;96216.00;;;;8306470;28;20344;-69
2023/08/09 07:03:16;;;;;;;7.50;4.05;;;;;15.50;96214.00;;;;8314850;28;20252;-69
2023/08/09 07:07:21;;;;;;;6.82;4.78;;;;;15.50;96221.00;;;;8312283;28;20340;-69
2023/08/09 07:11:24;;;;;;;7.30;4.35;;;;;15.40;96232.00;;;;8310076;28;20313;-70
2023/08/09 07:15:27;;;;;;;11.98;5.03;;;;;15.40;96239.00;;;;8306270;28;20263;-69
2023/08/09 07:19:33;;;;;;;8.27;4.60;;;;;15.30;96236.00;;;;8309437;28;20237;-69
2023/08/09 07:23:37;;;;;;;10.68;4.72;;;;;15.20;96240.00;;;;8309955;28;20197;-69
2023/08/09 07:27:59;;;;;;;8.20;4.40;;;;;15.20;96235.00;;;;8311718;28;20197;-70
2023/08/09 07:32:02;;;;;;;7.03;4.30;;;;;15.20;96238.00;;;;8312679;28;20205;-68
2023/08/09 07:36:08;;;;;;;9.25;4.57;;;;;15.30;96249.00;;;;8313024;28;20686;-69
2023/08/09 07:40:20;;;;;;;11.30;4.70;;;;;15.40;96238.00;;;;8313690;28;20293;-69
2023/08/09 07:44:26;;;;;;;11.45;5.03;;;;;15.30;96227.00;;;;8310179;28;20202;-69
2023/08/09 07:48:33;;;;;;;10.45;4.47;;;;;15.30;96236.00;;;;8309471;28;20651;-70
2023/08/09 07:52:36;;;;;;;10.85;5.07;;;;;15.30;96244.00;;;;8311398;28;20204;-69
2023/08/09 07:56:41;;;;;;;11.13;5.20;;;;;15.40;96241.00;;;;8294884;28;20221;-68
2023/08/09 08:00:46;;;;;;;8.27;4.43;;;;;15.40;96254.00;;;;8309767;28;20204;-73
2023/08/09 08:04:53;;;;;;;8.55;4.72;;;;;15.30;96271.00;;;;8311043;28;20233;-73
2023/08/09 08:08:57;;;;;;;9.43;4.55;;;;;15.20;96273.00;;;;8313445;28;20221;-75
2023/08/09 08:13:02;;;;;;;7.82;4.22;;;;;15.20;96272.00;;;;8307025;28;20197;-76
2023/08/09 08:17:05;;;;;;;7.15;4.85;;;;;15.10;96290.00;;;;8307900;28;20231;-81
2023/08/09 08:21:11;;;;;;;11.55;5.32;;;;;15.10;96270.00;;;;8309167;28;20280;-74
2023/08/09 08:25:16;;;;;;;9.20;4.78;;;;;15.10;96277.00;;;;8302357;28;20945;-73
2023/08/09 08:29:23;;;;;;;10.32;4.95;;;;;15.00;96269.00;;;;8307073;28;20217;-76
2023/08/09 08:33:27;;;;;;;10.07;4.72;;;;;15.10;96275.00;;;;8309521;28;20209;-73
2023/08/09 08:37:32;;;;;;;8.02;4.95;;;;;15.20;96286.00;;;;8312299;28;20678;-72
2023/08/09 08:41:35;;;;;;;9.73;4.50;;;;;15.30;96271.00;;;;8314797;28;20204;-72
2023/08/09 08:45:48;;;;;;;6.82;4.35;;;;;15.30;96285.00;;;;8315093;28;20225;-72
2023/08/09 08:49:53;;;;;;;8.90;4.70;;;;;15.30;96300.00;;;;8310031;28;20341;-72
2023/08/09 08:53:56;;;;;;;7.13;4.50;;;;;15.40;96286.00;;;;8310270;28;20208;-71
2023/08/09 08:57:59;;;;;;;10.18;5.13;;;;;15.50;96293.00;;;;8310378;28;20255;-73
2023/08/09 09:02:06;;;;;;;6.93;4.07;;;;;15.90;96298.00;;;;8311799;28;20217;-76
2023/08/09 09:06:10;;;;;;;8.00;4.50;;;;;16.60;96303.00;;;;8298472;28;20232;-79
2023/08/09 09:10:14;;;;;;;8.05;4.68;;;;;17.20;96304.00;;;;8314664;28;20288;-80
2023/08/09 09:14:19;;;;;;;10.05;4.20;;;;;17.60;96304.00;;;;8306920;28;20203;-75
2023/08/09 09:18:24;;;;;;;4.60;3.67;;;;;18.00;96304.00;;;;8301977;28;20221;-73
2023/08/09 09:22:28;;;;;;;5.88;3.75;;;;;18.20;96304.00;;;;8311355;28;20205;-79
2023/08/09 09:26:33;;;;;;;7.53;4.65;;;;;18.40;96305.00;;;;8306143;28;20205;-73
2023/08/09 09:30:36;;;;;;;4.45;3.97;;;;;19.40;96311.00;;;;8315680;28;20234;-69
2023/08/09 09:34:41;;;;;;;7.05;4.63;;;;;19.60;96305.00;;;;8320530;28;20284;-81
2023/08/09 09:38:56;;;;;;;4.00;3.60;;;;;19.60;96297.00;;;;8316645;28;20225;-71
2023/08/09 09:43:05;;;;;;;3.10;2.90;;;;;19.70;96299.00;;;;8306958;28;20255;-66
2023/08/09 09:47:10;;;;;;;5.13;3.10;;;;;20.50;96296.00;;;;8305848;28;20667;-67
2023/08/09 09:51:19;;;;;;;3.38;3.05;;;;;20.30;96301.00;;;;8314037;28;20202;-66
2023/08/09 09:55:25;;;;;;;5.05;2.80;;;;;20.00;96296.00;;;;8307232;28;20698;-66
2023/08/09 09:59:32;;;;;;;3.45;2.83;;;;;19.80;96295.00;;;;8312965;28;20245;-69
2023/08/09 10:03:38;;;;;;;2.80;2.60;;;;;19.90;96293.00;;;;8309192;28;20688;-67
2023/08/09 10:07:57;;;;;;;4.55;3.17;;;;;20.00;96290.00;;;;8308499;28;20244;-67
2023/08/09 10:12:08;;;;;;;4.65;2.70;;;;;20.20;96289.00;;;;8314042;28;20208;-67
2023/08/09 10:16:17;;;;;;;2.53;2.30;;;;;21.00;96292.00;;;;8309215;28;20209;-67
2023/08/09 10:20:23;;;;;;;2.90;2.40;;;;;21.50;96300.00;;;;8312054;28;20229;-67
2023/08/09 10:24:31;;;;;;;4.15;2.83;;;;;22.10;96298.00;;;;8316415;28;20232;-66
2023/08/09 10:28:49;;;;;;;6.38;2.50;;;;;22.30;96303.00;;;;8310773;28;20198;-67
2023/08/09 10:32:54;;;;;;;2.80;2.42;;;;;21.90;96301.00;;;;8314163;28;20200;-67
2023/08/09 10:37:03;;;;;;;5.93;2.72;;;;;21.30;96305.00;;;;8314278;28;20205;-67
2023/08/09 10:41:12;;;;;;;5.22;2.20;;;;;21.10;96307.00;;;;8297863;28;20190;-67
2023/08/09 10:45:15;;;;;;;3.63;2.50;;;;;21.30;96296.00;;;;8313846;28;20205;-67
2023/08/09 10:49:32;;;;;;;2.35;2.15;;;;;21.40;96296.00;;;;8311534;28;20208;-66
2023/08/09 10:53:51;;;;;;;3.45;2.33;;;;;21.30;96305.00;;;;8289269;28;20316;-66
2023/08/09 10:58:09;;;;;;;6.28;2.30;;;;;21.00;96303.00;;;;8289011;28;20319;-67
2023/08/09 11:02:16;;;;;;;3.83;2.13;;;;;21.10;96296.00;;;;8292297;28;20737;-66
2023/08/09 11:06:33;;;;;;;3.10;2.30;;;;;21.40;96294.00;;;;8300470;28;20198;-68
2023/08/09 11:10:38;;;;;;;3.28;2.30;;;;;21.60;96288.00;;;;8304108;28;20227;-71
2023/08/09 11:14:49;;;;;;;2.05;1.77;;;;;21.80;96279.00;;;;8289963;28;20216;-72
2023/08/09 11:19:04;;;;;;;3.03;1.92;;;;;22.00;96282.00;;;;8306820;28;20225;-72
2023/08/09 11:23:15;;;;;;;4.45;2.10;;;;;22.10;96278.00;;;;8307325;28;20236;-71
2023/08/09 11:27:18;;;;;;;2.63;1.60;;;;;22.70;96284.00;;;;8314818;28;20284;-72
2023/08/09 11:31:25;;;;;;;2.30;2.08;;;;;23.30;96280.00;;;;8308853;28;20313;-69
2023/08/09 11:35:39;;;;;;;2.10;1.90;;;;;23.10;96280.00;;;;8308327;28;20719;-72
2023/08/09 11:39:45;;;;;;;1.92;1.77;;;;;22.80;96284.00;;;;8313277;28;20225;-71
2023/08/09 11:43:48;;;;;;;2.50;1.60;;;;;22.50;96287.00;;;;8310531;28;20205;-73
2023/08/09 11:47:55;;;;;;;2.10;2.00;;;;;22.50;96281.00;;;;8309065;28;20270;-71
2023/08/09 11:52:01;;;;;;;4.13;1.83;;;;;22.80;96279.00;;;;8307203;28;20189;-70
2023/08/09 11:56:11;;;;;;;3.42;1.90;;;;;22.80;96282.00;;;;8308870;28;20582;-75
2023/08/09 12:00:18;;;;;;;1.88;1.77;;;;;22.60;96282.00;;;;8309790;28;20229;-74
2023/08/09 12:04:35;;;;;;;3.08;2.10;;;;;22.70;96278.00;;;;8167423;28;3950998;-70
2023/08/09 12:08:43;;;;;;;3.42;2.03;;;;;22.30;96277.00;;;;8312369;28;20205;-71
2023/08/09 12:12:47;;;;;;;1.70;1.60;;;;;22.40;96291.00;;;;8310512;28;20214;-71
2023/08/09 12:16:50;;;;;;;2.17;1.63;;;;;22.50;96295.00;;;;8311425;28;20204;-71
2023/08/09 12:20:58;;;;;;;4.53;1.80;;;;;21.90;96295.00;;;;8303641;28;20229;-73
2023/08/09 12:25:01;;;;;;;2.13;2.03;;;;;21.30;96294.00;;;;8310045;28;20296;-71
2023/08/09 12:29:04;;;;;;;2.05;1.90;;;;;21.40;96291.00;;;;8311821;28;20212;-73
2023/08/09 12:33:09;;;;;;;1.90;1.80;;;;;21.90;96283.00;;;;8311783;28;20285;-70
2023/08/09 12:37:14;;;;;;;27.77;2.17;;;;;22.70;96284.00;;;;8310242;28;20201;-72
2023/08/09 12:41:20;;;;;;;1.80;1.65;;;;;23.10;96290.00;;;;8297613;28;20251;-71
2023/08/09 12:45:26;;;;;;;1.75;1.60;;;;;23.40;96286.00;;;;8309055;28;20198;-72
2023/08/09 12:49:29;;;;;;;3.03;1.50;;;;;23.40;96289.00;;;;8316564;28;20288;-72
2023/08/09 12:53:34;;;;;;;1.73;1.60;;;;;23.30;96296.00;;;;8316051;28;20243;-73
2023/08/09 12:57:39;;;;;;;2.28;1.70;;;;;22.80;96311.00;;;;8316934;28;20711;-72
2023/08/09 13:01:49;;;;;;;1.95;1.75;;;;;23.20;96314.00;;;;8316641;28;20226;-70
2023/08/09 13:05:52;;;;;;;1.45;1.45;;;;;24.00;96313.00;;;;8317054;28;20197;-69
2023/08/09 13:10:04;;;;;;;2.42;1.50;;;;;24.00;96316.00;;;;8317433;28;20229;-70
2023/08/09 13:14:10;;;;;;;1.77;1.70;;;;;23.40;96331.00;;;;8307355;28;20216;-71
2023/08/09 13:18:18;;;;;;;1.70;1.60;;;;;23.10;96331.00;;;;8316605;28;20229;-74
2023/08/09 13:22:27;;;;;;;2.15;1.58;;;;;23.00;96330.00;;;;8304913;28;20641;-69
2023/08/09 13:26:32;;;;;;;1.90;1.77;;;;;23.60;96335.00;;;;8307602;28;20464;-73
2023/08/09 13:30:35;;;;;;;1.20;1.20;;;;;23.70;96340.00;;;;8309554;28;20211;-70
2023/08/09 13:34:41;;;;;;;1.38;1.38;;;;;23.30;96344.00;;;;8314727;28;20210;-73
2023/08/09 13:38:44;;;;;;;1.40;1.40;;;;;22.90;96339.00;;;;8307477;28;20225;-72
2023/08/09 13:42:49;;;;;;;1.30;1.30;;;;;22.90;96341.00;;;;8315022;28;20194;-75
2023/08/09 13:46:54;;;;;;;1.33;1.23;;;;;22.80;96349.00;;;;8320159;28;20609;-75
2023/08/09 13:51:01;;;;;;;2.70;1.52;;;;;22.70;96354.00;;;;8320172;28;20198;-76
2023/08/09 13:55:04;;;;;;;1.27;1.20;;;;;22.40;96352.00;;;;8318368;28;20298;-78
2023/08/09 13:59:09;;;;;;;1.63;1.50;;;;;21.90;96369.00;;;;8311112;28;20235;-76
2023/08/09 14:03:14;;;;;;;2.80;1.40;;;;;21.10;96365.00;;;;8315445;28;20532;-72
2023/08/09 14:07:18;;;;;;;1.50;1.50;;;;;20.70;96361.00;;;;8318609;28;20201;-73
2023/08/09 14:11:25;;;;;;;2.63;1.88;;;;;21.00;96374.00;;;;8325204;28;20190;-74
2023/08/09 14:15:29;;;;;;;1.85;1.75;;;;;20.70;96380.00;;;;8316349;28;20301;-71
2023/08/09 14:19:37;;;;;;;1.90;1.80;;;;;20.20;96393.00;;;;8304052;28;20896;-72
2023/08/09 14:23:40;;;;;;;2.42;1.80;;;;;19.80;96400.00;;;;8309860;28;20206;-76
2023/08/09 14:27:44;;;;;;;3.17;2.10;;;;;18.80;96407.00;;;;8307829;28;20841;-77
2023/08/09 14:31:50;;;;;;;2.08;1.90;;;;;18.10;96415.00;;;;8308779;28;20198;-81
2023/08/09 14:35:57;;;;;;;2.00;1.88;;;;;17.90;96411.00;;;;8307042;28;20233;-79
2023/08/09 14:40:01;;;;;;;1.90;1.80;;;;;17.80;96403.00;;;;8311696;28;20828;-81
2023/08/09 14:44:06;;;;;;;2.22;2.10;;;;;17.70;96418.00;;;;8300446;28;20293;-83
2023/08/09 14:48:13;;;;;;;2.05;1.90;;;;;17.60;96411.00;;;;8307636;28;20241;-80
2023/08/09 14:52:17;;;;;;;2.42;2.30;;;;;17.70;96408.00;;;;8305146;28;20308;-80
2023/08/09 14:56:23;;;;;;;2.00;1.83;;;;;17.80;96410.00;;;;8307502;28;20205;-80
2023/08/09 15:00:32;;;;;;;1.98;1.88;;;;;18.00;96415.00;;;;8306136;28;20225;-76
2023/08/09 15:04:38;;;;;;;2.22;2.13;;;;;18.20;96414.00;;;;8304900;28;20813;-75
2023/08/09 15:08:41;;;;;;;3.22;2.05;;;;;18.30;96409.00;;;;8308345;28;20239;-74
2023/08/09 15:12:46;;;;;;;2.95;2.30;;;;;18.50;96408.00;;;;8304356;28;20686;-74
2023/08/09 15:16:51;;;;;;;2.05;1.90;;;;;18.60;96413.00;;;;8304475;28;20205;-74
2023/08/09 15:20:56;;;;;;;2.00;1.80;;;;;18.80;96413.00;;;;8307232;28;20218;-74
2023/08/09 15:25:01;;;;;;;2.10;1.80;;;;;18.90;96410.00;;;;8287641;28;21108;-72
2023/08/09 15:29:06;;;;;;;3.33;1.80;;;;;19.00;96426.00;;;;8307199;28;20198;-72
2023/08/09 15:33:09;;;;;;;2.00;1.90;;;;;19.20;96429.00;;;;8307752;28;20205;-72
2023/08/09 15:37:19;;;;;;;1.80;1.70;;;;;19.10;96427.00;;;;8307169;28;20209;-73
2023/08/09 15:41:22;;;;;;;2.60;2.10;;;;;19.10;96427.00;;;;8302721;28;20235;-73
2023/08/09 15:45:27;;;;;;;3.08;2.20;;;;;19.20;96431.00;;;;8304030;28;20275;-72
2023/08/09 15:49:33;;;;;;;2.58;2.28;;;;;19.20;96429.00;;;;8303607;28;20236;-72
2023/08/09 15:53:39;;;;;;;2.83;2.40;;;;;19.20;96419.00;;;;8303273;28;20197;-73
2023/08/09 15:57:42;;;;;;;2.30;2.20;;;;;19.20;96427.00;;;;8308789;28;20819;-73
2023/08/09 16:01:47;;;;;;;2.55;2.40;;;;;19.10;96429.00;;;;8290505;28;20890;-73
2023/08/09 16:05:51;;;;;;;3.05;2.33;;;;;19.10;96442.00;;;;8311053;28;20197;-72
2023/08/09 16:09:58;;;;;;;4.28;2.25;;;;;19.10;96445.00;;;;8310112;28;20678;-72
2023/08/09 16:14:06;;;;;;;4.03;2.20;;;;;19.10;96449.00;;;;8301739;28;20210;-72
2023/08/09 16:18:16;;;;;;;2.05;1.95;;;;;19.20;96448.00;;;;8316682;28;20594;-71
2023/08/09 16:22:23;;;;;;;2.20;2.10;;;;;19.30;96457.00;;;;8314594;28;20283;-72
2023/08/09 16:26:29;;;;;;;3.22;2.10;;;;;19.30;96460.00;;;;8298626;28;20208;-71
2023/08/09 16:30:33;;;;;;;2.42;2.22;;;;;19.50;96457.00;;;;8314067;28;20197;-69
2023/08/09 16:34:37;;;;;;;2.55;2.40;;;;;19.50;96456.00;;;;8316682;28;20205;-70
2023/08/09 16:38:42;;;;;;;2.30;2.15;;;;;19.40;96459.00;;;;8316765;28;20276;-70
2023/08/09 16:42:46;;;;;;;4.38;2.20;;;;;19.40;96476.00;;;;8310630;28;20233;-71
2023/08/09 16:46:58;;;;;;;2.22;2.00;;;;;19.30;96486.00;;;;8292124;28;20205;-71
2023/08/09 16:51:01;;;;;;;2.10;2.00;;;;;19.30;96486.00;;;;8311846;28;20654;-71
2023/08/09 16:55:05;;;;;;;2.15;2.05;;;;;19.30;96491.00;;;;8307053;28;20215;-70
2023/08/09 16:59:12;;;;;;;2.13;2.03;;;;;19.40;96490.00;;;;8306803;28;20241;-70
2023/08/09 17:03:15;;;;;;;2.58;2.38;;;;;19.40;96492.00;;;;8312942;28;20248;-71
2023/08/09 17:07:20;;;;;;;6.65;2.45;;;;;19.90;96489.00;;;;8314173;28;20250;-71
2023/08/09 17:11:24;;;;;;;2.13;1.98;;;;;20.60;96501.00;;;;8310007;28;20769;-71
2023/08/09 17:15:30;;;;;;;2.28;1.95;;;;;20.80;96502.00;;;;8318146;28;20225;-71
2023/08/09 17:19:35;;;;;;;1.92;1.80;;;;;20.70;96501.00;;;;8297006;28;20208;-71
2023/08/09 17:23:39;;;;;;;3.60;2.20;;;;;20.50;96511.00;;;;8312965;28;20209;-71
2023/08/09 17:27:45;;;;;;;2.22;2.05;;;;;20.50;96509.00;;;;8306939;28;20221;-71
2023/08/09 17:31:51;;;;;;;3.42;2.33;;;;;20.90;96511.00;;;;8312062;28;20192;-70
2023/08/09 17:35:55;;;;;;;2.03;1.92;;;;;21.30;96510.00;;;;8315544;28;20284;-76
2023/08/09 17:39:58;;;;;;;1.90;1.80;;;;;21.20;96513.00;;;;8313535;28;20977;-76
2023/08/09 17:44:03;;;;;;;2.38;2.03;;;;;21.20;96519.00;;;;8315534;28;20290;-76
2023/08/09 17:48:11;;;;;;;1.98;1.88;;;;;21.00;96519.00;;;;8315337;28;20212;-75
2023/08/09 17:52:18;;;;;;;3.03;2.08;;;;;20.50;96518.00;;;;8313514;28;20205;-75
2023/08/09 17:56:23;;;;;;;2.03;1.92;;;;;19.90;96520.00;;;;8314761;28;20296;-75
2023/08/09 18:00:26;;;;;;;2.53;2.33;;;;;19.50;96531.00;;;;8313994;28;20225;-75
2023/08/09 18:04:31;;;;;;;4.03;2.20;;;;;19.20;96527.00;;;;8312607;28;20786;-74
2023/08/09 18:08:34;;;;;;;1.90;1.80;;;;;19.00;96529.00;;;;8312380;28;20204;-75
2023/08/09 18:12:40;;;;;;;2.28;2.08;;;;;18.90;96533.00;;;;8312330;28;21020;-75
2023/08/09 18:16:48;;;;;;;3.85;1.85;;;;;18.80;96537.00;;;;8313231;28;20794;-75
2023/08/09 18:20:57;;;;;;;3.78;2.25;;;;;18.60;96533.00;;;;8308563;28;20645;-75
2023/08/09 18:25:04;;;;;;;6.55;2.22;;;;;18.50;96541.00;;;;8316334;28;20193;-75
2023/08/09 18:29:11;;;;;;;1.80;1.77;;;;;18.20;96551.00;;;;8311414;28;20259;-75
2023/08/09 18:33:15;;;;;;;3.17;2.00;;;;;18.00;96551.00;;;;8313140;28;20209;-75
2023/08/09 18:37:19;;;;;;;4.60;2.05;;;;;17.80;96549.00;;;;8292097;28;20240;-75
2023/08/09 18:41:24;;;;;;;5.22;2.33;;;;;17.60;96558.00;;;;8312043;28;20867;-75
2023/08/09 18:45:30;;;;;;;2.78;2.35;;;;;17.40;96561.00;;;;8309293;28;20293;-75
2023/08/09 18:49:33;;;;;;;2.38;2.22;;;;;17.20;96571.00;;;;8312810;28;20201;-76
2023/08/09 18:53:38;;;;;;;2.55;2.10;;;;;17.10;96567.00;;;;8308332;28;20288;-74
2023/08/09 18:57:42;;;;;;;3.15;2.40;;;;;17.00;96569.00;;;;8309407;28;20985;-71
2023/08/09 19:01:48;;;;;;;4.72;2.60;;;;;16.90;96570.00;;;;8307174;28;20221;-73
2023/08/09 19:05:51;;;;;;;2.50;2.33;;;;;16.70;96573.00;;;;8308437;28;20205;-74
2023/08/09 19:09:56;;;;;;;3.08;2.42;;;;;16.60;96569.00;;;;8306981;28;20198;-73
2023/08/09 19:13:59;;;;;;;2.55;2.35;;;;;16.40;96566.00;;;;8297482;28;20769;-73
2023/08/09 19:18:03;;;;;;;4.95;2.50;;;;;16.20;96582.00;;;;8302723;28;20811;-70
2023/08/09 19:22:06;;;;;;;2.53;2.40;;;;;16.10;96576.00;;;;8306608;28;20229;-71
2023/08/09 19:26:11;;;;;;;4.00;3.00;;;;;16.00;96577.00;;;;8308670;28;20224;-74
2023/08/09 19:30:17;;;;;;;3.22;2.92;;;;;15.90;96597.00;;;;8308406;28;20573;-74
2023/08/09 19:34:21;;;;;;;4.70;2.88;;;;;15.80;96589.00;;;;8306977;28;20204;-73
2023/08/09 19:38:26;;;;;;;3.53;2.85;;;;;15.70;96592.00;;;;8307173;28;20221;-74
2023/08/09 19:42:32;;;;;;;5.97;3.15;;;;;15.60;96589.00;;;;8307063;28;20225;-73
2023/08/09 19:46:36;;;;;;;4.57;3.13;;;;;15.50;96591.00;;;;8296002;28;20202;-75
2023/08/09 19:50:43;;;;;;;6.82;3.97;;;;;15.30;96593.00;;;;8306074;28;20194;-77
2023/08/09 19:54:51;;;;;;;5.72;3.80;;;;;15.20;96595.00;;;;8311204;28;20197;-77
2023/08/09 19:58:55;;;;;;;5.03;4.05;;;;;15.10;96582.00;;;;8307198;28;20208;-75
2023/08/09 20:02:59;;;;;;;8.18;4.43;;;;;15.00;96582.00;;;;8305988;28;20233;-78
2023/08/09 20:07:03;;;;;;;6.30;4.07;;;;;14.90;96593.00;;;;8294124;28;20305;-78
2023/08/09 20:11:06;;;;;;;6.68;4.70;;;;;14.90;96594.00;;;;8311675;28;20201;-76
2023/08/09 20:15:11;;;;;;;7.68;4.90;;;;;14.90;96594.00;;;;8306178;28;20201;-76
2023/08/09 20:19:18;;;;;;;7.50;4.85;;;;;14.90;96595.00;;;;8306593;28;20774;-78
2023/08/09 20:23:22;;;;;;;7.47;5.50;;;;;14.90;96602.00;;;;8306631;28;20892;-79
2023/08/09 20:27:25;;;;;;;10.60;5.07;;;;;14.90;96607.00;;;;8285383;28;20296;-77